Avalon, California
Current Conditions -  °F | °C
As of 8:06 AM on Tuesday 21 Oct 2014 (Local Time) from KAVX Reporting Station
Haze Haze  
Wind Chill: 60°   Ceiling: 200
Heat Index: 60°   Visibility: 3mi
Dew Point: 58°   Wind: 5mph
Humidity: 93%   Direction: 100°E
Pressure: 29.95"   Gusts: NA
Location:  33.34°N, 118.33°W
Report Text: KAVX 211506Z AUTO 10004KT 3SM BR BKN002 16/14 A2995 RMK AO2 T01560144
Loading
Personal Weather Stations






























Interactive Weather Map
Tropical Storm Tracking
New forecast layout! Learn more

10-Day Weather Forecast

Advertisements
Track Severe Weather on mobile